Time;durP1;ratioP1;P1;durP2;ratioP2;P2;SDS_P1;SDS_P2;PMS_P1;PMS_P2;Temp;Humidity;BMP_temperature;BMP_pressure;BME280_temperature;BME280_humidity;BME280_pressure;Samples;Min_cycle;Max_cycle;Signal;HPM_P1;HPM_P2
2022/10/21 00:00:01;;;;;;;24.00;11.90;;;;;;;;;;5100559;28;20020;-73
2022/10/21 00:02:26;;;;;;;24.90;12.13;;;;;;;;;;5097604;28;20319;-74
2022/10/21 00:04:51;;;;;;;23.77;12.40;;;;;;;;;;5096460;28;20030;-74
2022/10/21 00:07:16;;;;;;;24.07;12.10;;;;;;;;;;5101169;27;20288;-74
2022/10/21 00:09:41;;;;;;;26.33;12.10;;;;;;;;;;5100882;28;20462;-73
2022/10/21 00:12:07;;;;;;;22.70;11.43;;;;;;;;;;5099193;27;20478;-73
2022/10/21 00:14:32;;;;;;;24.80;12.47;;;;;;;;;;5103023;28;20304;-72
2022/10/21 00:16:57;;;;;;;23.87;12.47;;;;;;;;;;5101678;27;20288;-73
2022/10/21 00:19:23;;;;;;;24.70;12.35;;;;;;;;;;5100765;27;20027;-72
2022/10/21 00:21:48;;;;;;;26.00;11.87;;;;;;;;;;5099611;28;20496;-73
2022/10/21 00:24:13;;;;;;;27.47;12.90;;;;;;;;;;5117590;27;20300;-73
2022/10/21 00:26:38;;;;;;;22.33;11.53;;;;;;;;;;5118356;27;20050;-74
2022/10/21 00:29:04;;;;;;;26.67;12.67;;;;;;;;;;5121957;27;20362;-73
2022/10/21 00:31:29;;;;;;;22.75;12.23;;;;;;;;;;5120880;27;20678;-73
2022/10/21 00:33:54;;;;;;;30.30;13.52;;;;;;;;;;5118136;27;20076;-73
2022/10/21 00:36:20;;;;;;;27.67;13.50;;;;;;;;;;5117577;27;20140;-74
2022/10/21 00:38:47;;;;;;;21.47;12.60;;;;;;;;;;5120535;27;21091;-74
2022/10/21 00:41:13;;;;;;;24.52;13.05;;;;;;;;;;5110793;27;20275;-73
2022/10/21 00:43:52;;;;;;;21.52;11.85;;;;;;;;;;5117256;27;20027;-74
2022/10/21 00:46:17;;;;;;;29.65;13.73;;;;;;;;;;5120779;27;20691;-74
2022/10/21 00:48:49;;;;;;;29.27;13.25;;;;;;;;;;5120220;27;20042;-75
2022/10/21 00:51:16;;;;;;;26.13;13.15;;;;;;;;;;5122808;27;20111;-74
2022/10/21 00:53:43;;;;;;;28.23;14.50;;;;;;;;;;5121896;27;20377;-72
2022/10/21 00:56:10;;;;;;;28.88;13.90;;;;;;;;;;5105183;27;20394;-72
2022/10/21 00:58:36;;;;;;;29.50;14.35;;;;;;;;;;5120175;27;20032;-72
2022/10/21 01:01:02;;;;;;;27.42;13.45;;;;;;;;;;5122284;27;20031;-72
2022/10/21 01:03:28;;;;;;;28.80;13.75;;;;;;;;;;5120104;27;20023;-71
2022/10/21 01:05:56;;;;;;;26.15;14.00;;;;;;;;;;5120537;27;20027;-72
2022/10/21 01:08:21;;;;;;;26.05;12.65;;;;;;;;;;5122441;27;20055;-72
2022/10/21 01:10:47;;;;;;;26.98;13.23;;;;;;;;;;5101793;27;20047;-73
2022/10/21 01:13:15;;;;;;;24.97;12.67;;;;;;;;;;5120124;27;20031;-73
2022/10/21 01:15:51;;;;;;;23.95;12.57;;;;;;;;;;5125078;27;20324;-72
2022/10/21 01:18:16;;;;;;;23.58;12.18;;;;;;;;;;5126454;27;20528;-73
2022/10/21 01:20:44;;;;;;;28.13;11.97;;;;;;;;;;5116241;27;20131;-72
2022/10/21 01:23:28;;;;;;;23.38;10.52;;;;;;;;;;5115787;27;20080;-72
2022/10/21 01:26:12;;;;;;;22.73;11.02;;;;;;;;;;5118131;27;20119;-72
2022/10/21 01:28:40;;;;;;;18.10;9.35;;;;;;;;;;5115765;27;20422;-75
2022/10/21 01:31:05;;;;;;;27.35;9.73;;;;;;;;;;5117538;27;20103;-75
2022/10/21 01:33:41;;;;;;;17.93;9.17;;;;;;;;;;5119199;27;20473;-74
2022/10/21 01:36:12;;;;;;;19.52;9.18;;;;;;;;;;5102413;27;20473;-75
2022/10/21 01:38:43;;;;;;;18.05;9.50;;;;;;;;;;5119348;27;20028;-75
2022/10/21 01:41:11;;;;;;;24.00;10.73;;;;;;;;;;5103454;27;20369;-74
2022/10/21 01:43:55;;;;;;;20.00;10.07;;;;;;;;;;5097706;27;20136;-74
2022/10/21 01:46:23;;;;;;;18.95;8.57;;;;;;;;;;5122465;27;20390;-74
2022/10/21 01:48:52;;;;;;;16.10;8.48;;;;;;;;;;5095054;27;20023;-75
2022/10/21 01:51:18;;;;;;;16.80;8.52;;;;;;;;;;5102372;28;20544;-74
2022/10/21 01:53:47;;;;;;;15.25;8.43;;;;;;;;;;5113671;27;20099;-74
2022/10/21 01:56:12;;;;;;;;;;;;;;;;;;5120940;27;20023;-72
2022/10/21 01:58:39;;;;;;;18.88;9.98;;;;;;;;;;5115098;27;19963;-73
2022/10/21 02:01:05;;;;;;;24.40;11.07;;;;;;;;;;5122002;27;20418;-73
2022/10/21 02:03:32;;;;;;;23.58;11.10;;;;;;;;;;5099403;27;20116;-72
2022/10/21 02:05:58;;;;;;;19.17;10.15;;;;;;;;;;5115521;27;20024;-72
2022/10/21 02:08:23;;;;;;;17.33;9.23;;;;;;;;;;5118150;27;20032;-72
2022/10/21 02:10:51;;;;;;;19.27;9.25;;;;;;;;;;5120119;27;20037;-73
2022/10/21 02:13:19;;;;;;;1999.90;773.28;;;;;;;;;;5120284;27;20027;-72
2022/10/21 02:15:44;;;;;;;1825.40;127.47;;;;;;;;;;5119390;27;20030;-72
2022/10/21 02:18:17;;;;;;;35.03;17.40;;;;;;;;;;5099771;27;20472;-72
2022/10/21 02:20:43;;;;;;;19.65;10.60;;;;;;;;;;5117629;27;20120;-73
2022/10/21 02:23:10;;;;;;;19.00;9.60;;;;;;;;;;5117419;27;20087;-73
2022/10/21 02:25:37;;;;;;;18.27;8.85;;;;;;;;;;5096889;27;20127;-74
2022/10/21 02:28:03;;;;;;;16.92;9.20;;;;;;;;;;5117159;27;20080;-73
2022/10/21 02:30:32;;;;;;;21.67;9.07;;;;;;;;;;5121722;27;20027;-73
2022/10/21 02:32:57;;;;;;;18.27;10.02;;;;;;;;;;5117857;27;20494;-74
2022/10/21 02:35:25;;;;;;;16.40;9.47;;;;;;;;;;5117094;27;20051;-73
2022/10/21 02:38:03;;;;;;;16.45;8.75;;;;;;;;;;5123143;27;20015;-73
2022/10/21 02:40:28;;;;;;;19.85;9.70;;;;;;;;;;5118876;27;20091;-73
2022/10/21 02:42:56;;;;;;;17.80;9.70;;;;;;;;;;5116301;27;20031;-73
2022/10/21 02:45:21;;;;;;;19.65;10.10;;;;;;;;;;5119132;27;20055;-73
2022/10/21 02:47:48;;;;;;;19.42;9.98;;;;;;;;;;5099896;27;20119;-74
2022/10/21 02:50:13;;;;;;;22.75;9.80;;;;;;;;;;5100839;27;20052;-73
2022/10/21 02:52:38;;;;;;;20.80;10.43;;;;;;;;;;5117846;27;20514;-74
2022/10/21 02:55:04;;;;;;;19.40;10.43;;;;;;;;;;5099885;27;20276;-75
2022/10/21 02:57:29;;;;;;;22.17;10.48;;;;;;;;;;5118712;28;20492;-74
2022/10/21 02:59:54;;;;;;;19.53;9.43;;;;;;;;;;5119156;27;20473;-73
2022/10/21 03:02:20;;;;;;;19.03;10.00;;;;;;;;;;5115790;27;20085;-73
2022/10/21 03:04:45;;;;;;;24.20;10.23;;;;;;;;;;5120021;27;20283;-73
2022/10/21 03:07:10;;;;;;;17.97;9.53;;;;;;;;;;5101724;28;20096;-73
2022/10/21 03:09:35;;;;;;;22.00;10.23;;;;;;;;;;5118075;27;20034;-72
2022/10/21 03:12:01;;;;;;;20.70;10.23;;;;;;;;;;5117821;27;20645;-73
2022/10/21 03:14:26;;;;;;;22.17;10.67;;;;;;;;;;5123221;27;20344;-73
2022/10/21 03:16:51;;;;;;;21.47;10.43;;;;;;;;;;5124596;27;20295;-73
2022/10/21 03:19:16;;;;;;;20.83;10.50;;;;;;;;;;5100982;27;20038;-73
2022/10/21 03:21:42;;;;;;;20.50;10.37;;;;;;;;;;5121289;27;20031;-73
2022/10/21 03:24:07;;;;;;;20.17;10.23;;;;;;;;;;5119582;27;20742;-73
2022/10/21 03:26:32;;;;;;;17.07;10.03;;;;;;;;;;5120097;27;20120;-73
2022/10/21 03:28:57;;;;;;;21.30;10.00;;;;;;;;;;5122235;27;20584;-73
2022/10/21 03:31:22;;;;;;;21.07;9.63;;;;;;;;;;5126791;27;20050;-73
2022/10/21 03:33:48;;;;;;;19.17;9.77;;;;;;;;;;5126436;27;20034;-75
2022/10/21 03:36:13;;;;;;;21.10;9.20;;;;;;;;;;5127627;27;20025;-74
2022/10/21 03:38:38;;;;;;;18.83;9.67;;;;;;;;;;5125486;27;20104;-73
2022/10/21 03:41:03;;;;;;;20.47;8.90;;;;;;;;;;5124145;27;20097;-74
2022/10/21 03:43:29;;;;;;;28.92;9.68;;;;;;;;;;5122809;27;20023;-74
2022/10/21 03:45:54;;;;;;;17.23;9.83;;;;;;;;;;5118920;27;20031;-75
2022/10/21 03:48:19;;;;;;;21.13;9.70;;;;;;;;;;5116474;27;20027;-72
2022/10/21 03:50:44;;;;;;;21.40;9.87;;;;;;;;;;5120077;27;20045;-72
2022/10/21 03:53:10;;;;;;;19.85;9.98;;;;;;;;;;5120953;27;20053;-75
2022/10/21 03:55:35;;;;;;;24.77;9.85;;;;;;;;;;5123704;27;20102;-74
2022/10/21 03:58:00;;;;;;;19.73;9.02;;;;;;;;;;5102458;28;20097;-74
2022/10/21 04:00:25;;;;;;;16.70;8.70;;;;;;;;;;5106957;27;20110;-74
2022/10/21 04:02:51;;;;;;;20.08;8.70;;;;;;;;;;5104702;27;20352;-75
2022/10/21 04:05:16;;;;;;;19.90;8.48;;;;;;;;;;5102298;27;20039;-75
2022/10/21 04:07:41;;;;;;;19.70;8.70;;;;;;;;;;5121544;27;20030;-75
2022/10/21 04:10:07;;;;;;;18.73;7.85;;;;;;;;;;5120382;27;20035;-75
2022/10/21 04:12:32;;;;;;;16.27;7.53;;;;;;;;;;5106311;27;20072;-75
2022/10/21 04:14:58;;;;;;;13.07;7.70;;;;;;;;;;5122243;27;20075;-75
2022/10/21 04:17:23;;;;;;;14.40;8.05;;;;;;;;;;5117234;27;20027;-75
2022/10/21 04:19:48;;;;;;;14.93;7.43;;;;;;;;;;5104885;27;20027;-70
2022/10/21 04:22:13;;;;;;;14.53;6.63;;;;;;;;;;5104812;27;20046;-71
2022/10/21 04:24:39;;;;;;;14.63;7.03;;;;;;;;;;5120818;27;20028;-71
2022/10/21 04:27:04;;;;;;;15.65;7.10;;;;;;;;;;5116997;27;20696;-71
2022/10/21 04:29:29;;;;;;;12.70;7.20;;;;;;;;;;5118515;27;20027;-71
2022/10/21 04:31:54;;;;;;;19.47;7.13;;;;;;;;;;5122451;27;20042;-72
2022/10/21 04:34:20;;;;;;;14.03;6.53;;;;;;;;;;5120430;27;20267;-71
2022/10/21 04:36:45;;;;;;;17.37;7.50;;;;;;;;;;5119685;27;20256;-71
2022/10/21 04:39:10;;;;;;;15.47;6.57;;;;;;;;;;5096519;27;20369;-71
2022/10/21 04:41:35;;;;;;;20.67;6.97;;;;;;;;;;5118062;27;20157;-72
2022/10/21 04:44:01;;;;;;;23.53;7.53;;;;;;;;;;5120829;27;20030;-71
2022/10/21 04:46:27;;;;;;;16.65;7.18;;;;;;;;;;5117605;27;20276;-73
2022/10/21 04:48:52;;;;;;;20.10;7.07;;;;;;;;;;5099457;27;20034;-70
2022/10/21 04:51:17;;;;;;;19.23;7.07;;;;;;;;;;5116935;27;20024;-71
2022/10/21 04:53:42;;;;;;;19.93;6.97;;;;;;;;;;5120947;27;20024;-73
2022/10/21 04:56:08;;;;;;;21.93;7.67;;;;;;;;;;5119835;27;20366;-73
2022/10/21 04:58:33;;;;;;;14.10;6.60;;;;;;;;;;5124304;27;20275;-73
2022/10/21 05:00:58;;;;;;;19.83;6.90;;;;;;;;;;5119855;27;20120;-73
2022/10/21 05:03:23;;;;;;;22.97;7.37;;;;;;;;;;5100448;27;20324;-72
2022/10/21 05:05:52;;;;;;;19.30;7.47;;;;;;;;;;5116295;27;20280;-73
2022/10/21 05:08:17;;;;;;;32.60;9.25;;;;;;;;;;5115956;27;20314;-73
2022/10/21 05:10:43;;;;;;;24.60;8.07;;;;;;;;;;5100526;28;20058;-74
2022/10/21 05:13:08;;;;;;;26.60;8.60;;;;;;;;;;5119435;27;20076;-74
2022/10/21 05:15:33;;;;;;;25.57;7.63;;;;;;;;;;5122704;27;20011;-74
2022/10/21 05:17:58;;;;;;;24.40;7.93;;;;;;;;;;5118064;27;20280;-73
2022/10/21 05:20:24;;;;;;;19.63;8.20;;;;;;;;;;5098170;28;20282;-74
2022/10/21 05:22:50;;;;;;;15.93;7.43;;;;;;;;;;5118464;27;20044;-74
2022/10/21 05:25:16;;;;;;;21.15;7.00;;;;;;;;;;5116950;27;20023;-74
2022/10/21 05:27:41;;;;;;;24.10;7.32;;;;;;;;;;5115804;27;20080;-73
2022/10/21 05:30:07;;;;;;;18.53;7.73;;;;;;;;;;5104457;28;20699;-74
2022/10/21 05:32:32;;;;;;;22.48;7.68;;;;;;;;;;5119317;27;20027;-74
2022/10/21 05:34:57;;;;;;;27.93;7.43;;;;;;;;;;5119216;27;20031;-74
2022/10/21 05:37:22;;;;;;;28.17;8.60;;;;;;;;;;5116222;27;20840;-74
2022/10/21 05:39:48;;;;;;;23.40;7.60;;;;;;;;;;5113868;27;20073;-74
2022/10/21 05:42:13;;;;;;;27.27;6.87;;;;;;;;;;5118121;27;20557;-74
2022/10/21 05:44:38;;;;;;;22.63;6.78;;;;;;;;;;5117293;27;20035;-75
2022/10/21 05:47:04;;;;;;;18.07;6.60;;;;;;;;;;5101467;27;20102;-75
2022/10/21 05:49:29;;;;;;;24.03;7.17;;;;;;;;;;5105198;27;20168;-71
2022/10/21 05:51:54;;;;;;;17.42;7.00;;;;;;;;;;5115382;27;20638;-71
2022/10/21 05:54:19;;;;;;;17.42;7.05;;;;;;;;;;5100107;27;20035;-71
2022/10/21 05:56:46;;;;;;;20.93;7.00;;;;;;;;;;5104109;27;20020;-70
2022/10/21 05:59:12;;;;;;;17.55;7.22;;;;;;;;;;5119902;27;20271;-72
2022/10/21 06:01:38;;;;;;;20.13;7.00;;;;;;;;;;5097666;27;20027;-71
2022/10/21 06:04:03;;;;;;;17.38;6.93;;;;;;;;;;5116013;27;20031;-72
2022/10/21 06:06:28;;;;;;;24.33;7.20;;;;;;;;;;5117011;27;20024;-71
2022/10/21 06:08:54;;;;;;;17.43;7.20;;;;;;;;;;5120952;27;20554;-71
2022/10/21 06:11:19;;;;;;;17.57;6.87;;;;;;;;;;5106821;27;20369;-71
2022/10/21 06:13:44;;;;;;;15.70;7.07;;;;;;;;;;5118595;27;20505;-71
2022/10/21 06:16:10;;;;;;;14.48;7.50;;;;;;;;;;5123008;27;20100;-71
2022/10/21 06:18:36;;;;;;;15.50;7.00;;;;;;;;;;5119429;27;20495;-72
2022/10/21 06:21:01;;;;;;;13.18;6.45;;;;;;;;;;5096013;27;20023;-71
2022/10/21 06:23:27;;;;;;;15.02;6.57;;;;;;;;;;5118626;27;20552;-71
2022/10/21 06:25:56;;;;;;;17.80;6.57;;;;;;;;;;5107731;27;20019;-71
2022/10/21 06:28:21;;;;;;;14.63;6.68;;;;;;;;;;5122405;27;20351;-71
2022/10/21 06:30:47;;;;;;;12.07;6.53;;;;;;;;;;5116646;27;20119;-71
2022/10/21 06:33:12;;;;;;;12.07;6.40;;;;;;;;;;5115117;27;20286;-71
2022/10/21 06:35:37;;;;;;;14.87;6.43;;;;;;;;;;5120117;27;20032;-71
2022/10/21 06:38:02;;;;;;;13.03;6.40;;;;;;;;;;5102008;27;20023;-77
2022/10/21 06:40:27;;;;;;;10.90;6.23;;;;;;;;;;5117737;27;20282;-77
2022/10/21 06:42:53;;;;;;;18.83;6.37;;;;;;;;;;5122033;27;20027;-76
2022/10/21 06:45:18;;;;;;;13.68;6.20;;;;;;;;;;5122113;27;20276;-77
2022/10/21 06:47:43;;;;;;;12.60;6.57;;;;;;;;;;5118703;28;20016;-77
2022/10/21 06:50:09;;;;;;;15.32;5.88;;;;;;;;;;5121489;27;20054;-77
2022/10/21 06:52:34;;;;;;;10.25;5.88;;;;;;;;;;5116145;27;20043;-76
2022/10/21 06:54:59;;;;;;;8.95;5.00;;;;;;;;;;5099743;28;20020;-75
2022/10/21 06:57:26;;;;;;;12.88;5.20;;;;;;;;;;5120765;27;20027;-76
2022/10/21 06:59:51;;;;;;;10.27;5.68;;;;;;;;;;5105884;28;20381;-76
2022/10/21 07:02:17;;;;;;;9.70;5.47;;;;;;;;;;5121741;28;20024;-73
2022/10/21 07:04:44;;;;;;;10.23;5.63;;;;;;;;;;5118449;28;20873;-76
2022/10/21 07:07:09;;;;;;;12.88;5.72;;;;;;;;;;5114808;28;20409;-72
2022/10/21 07:09:34;;;;;;;8.85;4.85;;;;;;;;;;5101975;28;20031;-73
2022/10/21 07:12:00;;;;;;;10.90;4.57;;;;;;;;;;5105279;28;20053;-73
2022/10/21 07:14:25;;;;;;;14.07;4.85;;;;;;;;;;5118730;28;20270;-77
2022/10/21 07:16:52;;;;;;;8.63;4.85;;;;;;;;;;5106941;28;20540;-76
2022/10/21 07:19:17;;;;;;;10.45;5.03;;;;;;;;;;5116511;28;20035;-76
2022/10/21 07:21:43;;;;;;;16.10;4.88;;;;;;;;;;5099705;28;20481;-72
2022/10/21 07:24:08;;;;;;;14.45;4.78;;;;;;;;;;5120924;27;20400;-73
2022/10/21 07:26:34;;;;;;;8.93;4.68;;;;;;;;;;5117396;28;20023;-76
2022/10/21 07:28:59;;;;;;;13.77;5.20;;;;;;;;;;5109133;28;20031;-73
2022/10/21 07:31:25;;;;;;;10.63;4.68;;;;;;;;;;5122323;28;20286;-72
2022/10/21 07:33:51;;;;;;;13.80;5.32;;;;;;;;;;5121066;28;20023;-71
2022/10/21 07:36:18;;;;;;;21.20;5.38;;;;;;;;;;5119438;28;20098;-73
2022/10/21 07:38:45;;;;;;;11.75;4.80;;;;;;;;;;5101451;28;20028;-76
2022/10/21 07:41:37;;;;;;;11.23;5.22;;;;;;;;;;5103554;28;20050;-76
2022/10/21 07:44:03;;;;;;;15.50;5.38;;;;;;;;;;5096854;28;20027;-72
2022/10/21 07:46:28;;;;;;;11.35;5.13;;;;;;;;;;5102974;28;20023;-75
2022/10/21 07:48:54;;;;;;;11.57;5.05;;;;;;;;;;5101302;28;20027;-76
2022/10/21 07:51:20;;;;;;;11.70;5.13;;;;;;;;;;5099215;28;20042;-72
2022/10/21 07:53:47;;;;;;;11.40;4.97;;;;;;;;;;5121273;27;20074;-73
2022/10/21 07:56:14;;;;;;;13.57;5.43;;;;;;;;;;5122172;27;20020;-73
2022/10/21 07:58:40;;;;;;;12.25;5.35;;;;;;;;;;5106913;27;20041;-73
2022/10/21 08:01:07;;;;;;;13.18;5.18;;;;;;;;;;5097812;28;20039;-73
2022/10/21 08:03:32;;;;;;;16.08;5.72;;;;;;;;;;5100192;27;20027;-73
2022/10/21 08:05:57;;;;;;;9.63;5.85;;;;;;;;;;5120303;27;20028;-73
2022/10/21 08:08:23;;;;;;;9.20;4.97;;;;;;;;;;5120939;27;20046;-72
2022/10/21 08:10:49;;;;;;;13.45;5.70;;;;;;;;;;5129206;27;20354;-73
2022/10/21 08:13:15;;;;;;;11.15;5.30;;;;;;;;;;5122072;27;20115;-76
2022/10/21 08:15:41;;;;;;;12.93;4.95;;;;;;;;;;5108872;27;20468;-75
2022/10/21 08:18:06;;;;;;;9.68;4.97;;;;;;;;;;5105965;27;20074;-75
2022/10/21 08:20:31;;;;;;;12.43;5.23;;;;;;;;;;5120849;27;20392;-75
2022/10/21 08:22:56;;;;;;;9.75;4.63;;;;;;;;;;5120532;27;20074;-75
2022/10/21 08:25:21;;;;;;;10.00;4.90;;;;;;;;;;5117576;27;20381;-75
2022/10/21 08:27:47;;;;;;;10.13;5.30;;;;;;;;;;5107178;27;20117;-75
2022/10/21 08:30:14;;;;;;;9.47;5.00;;;;;;;;;;5103267;28;20047;-75
2022/10/21 08:32:39;;;;;;;12.73;5.30;;;;;;;;;;5122527;27;20275;-75
2022/10/21 08:35:05;;;;;;;8.07;4.80;;;;;;;;;;5102145;28;20046;-77
2022/10/21 08:37:30;;;;;;;11.00;4.90;;;;;;;;;;5108005;27;20015;-75
2022/10/21 08:39:56;;;;;;;7.75;4.85;;;;;;;;;;5102368;28;20066;-76
2022/10/21 08:42:22;;;;;;;11.73;5.60;;;;;;;;;;5102809;27;20120;-75
2022/10/21 08:44:56;;;;;;;11.43;5.05;;;;;;;;;;5104341;28;20032;-73
2022/10/21 08:47:22;;;;;;;14.50;5.13;;;;;;;;;;5122153;27;20029;-70
2022/10/21 08:49:59;;;;;;;8.02;5.15;;;;;;;;;;5103977;27;20031;-76
2022/10/21 08:52:37;;;;;;;10.15;5.28;;;;;;;;;;5117356;27;20027;-73
2022/10/21 08:55:04;;;;;;;9.73;4.53;;;;;;;;;;5101291;28;20107;-72
2022/10/21 08:57:31;;;;;;;10.20;4.97;;;;;;;;;;5121491;27;20513;-72
2022/10/21 08:59:56;;;;;;;11.80;5.10;;;;;;;;;;5105825;27;20041;-72
2022/10/21 09:02:24;;;;;;;10.00;5.00;;;;;;;;;;5115851;27;20384;-72
2022/10/21 09:04:55;;;;;;;10.85;5.10;;;;;;;;;;5116203;27;20753;-72
2022/10/21 09:07:39;;;;;;;8.85;4.82;;;;;;;;;;5117703;27;20039;-73
2022/10/21 09:10:14;;;;;;;9.50;4.68;;;;;;;;;;5123016;27;20023;-73
2022/10/21 09:12:59;;;;;;;8.35;4.78;;;;;;;;;;5099856;27;20064;-73
2022/10/21 09:15:26;;;;;;;10.90;5.22;;;;;;;;;;5125248;27;20023;-73
2022/10/21 09:17:57;;;;;;;7.82;4.53;;;;;;;;;;5120716;27;20034;-75
2022/10/21 09:20:28;;;;;;;9.93;4.63;;;;;;;;;;5116504;27;20077;-75
2022/10/21 09:23:02;;;;;;;11.50;4.60;;;;;;;;;;5102583;27;20512;-73
2022/10/21 09:25:30;;;;;;;16.73;5.47;;;;;;;;;;5117347;27;20110;-73
2022/10/21 09:27:56;;;;;;;7.47;4.55;;;;;;;;;;5103027;27;20480;-73
2022/10/21 09:30:22;;;;;;;6.88;4.20;;;;;;;;;;5114484;27;20053;-72
2022/10/21 09:32:50;;;;;;;8.80;4.43;;;;;;;;;;5119926;27;20026;-73
2022/10/21 09:35:18;;;;;;;8.48;4.75;;;;;;;;;;5115098;27;20063;-73
2022/10/21 09:37:49;;;;;;;7.20;4.00;;;;;;;;;;5108618;27;20106;-73
2022/10/21 09:40:16;;;;;;;8.25;3.85;;;;;;;;;;5116841;27;20023;-73
2022/10/21 09:42:42;;;;;;;6.35;4.35;;;;;;;;;;5119165;27;20333;-73
2022/10/21 09:45:15;;;;;;;9.82;4.28;;;;;;;;;;5095596;28;20023;-73
2022/10/21 09:47:40;;;;;;;7.53;4.03;;;;;;;;;;5117043;27;20089;-72
2022/10/21 09:50:13;;;;;;;9.57;4.05;;;;;;;;;;5095787;28;20469;-72
2022/10/21 09:52:38;;;;;;;7.10;3.55;;;;;;;;;;5120439;27;20084;-74
2022/10/21 09:55:03;;;;;;;7.13;4.23;;;;;;;;;;5114852;27;20015;-73
2022/10/21 09:57:41;;;;;;;6.82;3.80;;;;;;;;;;5122156;27;20106;-73
2022/10/21 10:00:06;;;;;;;8.85;3.95;;;;;;;;;;5107098;27;20067;-72
2022/10/21 10:02:34;;;;;;;15.13;4.00;;;;;;;;;;5114234;27;20453;-72
2022/10/21 10:05:00;;;;;;;7.53;4.13;;;;;;;;;;5119212;27;20369;-70
2022/10/21 10:07:25;;;;;;;7.25;3.40;;;;;;;;;;5115103;27;20038;-70
2022/10/21 10:09:50;;;;;;;5.78;3.60;;;;;;;;;;5124056;27;20020;-70
2022/10/21 10:12:20;;;;;;;6.40;3.70;;;;;;;;;;5106407;28;20035;-71
2022/10/21 10:14:45;;;;;;;;;;;;;;;;;;5122606;27;20027;-70
2022/10/21 10:17:22;;;;;;;12.03;3.40;;;;;;;;;;5109696;27;20002;-70
2022/10/21 10:20:03;;;;;;;8.07;4.03;;;;;;;;;;5098560;28;20031;-73
2022/10/21 10:22:42;;;;;;;7.38;3.72;;;;;;;;;;5121186;27;20031;-74
2022/10/21 10:25:07;;;;;;;7.82;3.67;;;;;;;;;;5109992;27;20469;-74
2022/10/21 10:27:33;;;;;;;6.95;3.60;;;;;;;;;;5116460;27;20035;-73
2022/10/21 10:29:59;;;;;;;5.47;3.47;;;;;;;;;;5104563;27;20165;-74
2022/10/21 10:32:28;;;;;;;8.48;3.35;;;;;;;;;;5118495;27;20032;-73
2022/10/21 10:34:57;;;;;;;11.35;3.90;;;;;;;;;;5120967;27;20389;-73
2022/10/21 10:37:24;;;;;;;8.15;3.97;;;;;;;;;;5110229;27;20023;-73
2022/10/21 10:39:51;;;;;;;5.15;3.13;;;;;;;;;;5099888;28;20031;-73
2022/10/21 10:42:27;;;;;;;6.05;3.38;;;;;;;;;;5126368;27;20031;-73
2022/10/21 10:44:54;;;;;;;8.15;3.55;;;;;;;;;;5100860;28;20110;-74
2022/10/21 10:47:24;;;;;;;9.13;3.58;;;;;;;;;;5120558;27;20031;-75
2022/10/21 10:49:49;;;;;;;5.25;3.20;;;;;;;;;;5113562;27;20019;-73
2022/10/21 10:52:20;;;;;;;9.43;3.65;;;;;;;;;;5114756;28;20027;-73
2022/10/21 10:54:45;;;;;;;6.05;3.25;;;;;;;;;;5101458;28;20028;-73
2022/10/21 10:57:16;;;;;;;8.75;3.28;;;;;;;;;;5115894;27;20042;-73
2022/10/21 10:59:48;;;;;;;8.35;3.47;;;;;;;;;;5114747;28;20068;-73
2022/10/21 11:02:22;;;;;;;6.40;3.88;;;;;;;;;;5115250;28;20429;-72
2022/10/21 11:04:50;;;;;;;6.25;3.03;;;;;;;;;;5115327;28;20035;-70
2022/10/21 11:07:28;;;;;;;5.97;3.00;;;;;;;;;;5107987;28;20019;-71
2022/10/21 11:09:57;;;;;;;6.32;3.20;;;;;;;;;;5097854;28;20103;-69
2022/10/21 11:12:25;;;;;;;7.28;3.15;;;;;;;;;;5112345;28;20435;-68
2022/10/21 11:14:53;;;;;;;9.25;3.22;;;;;;;;;;5113630;28;20104;-69
2022/10/21 11:17:20;;;;;;;8.73;3.30;;;;;;;;;;5114617;28;20046;-72
2022/10/21 11:19:45;;;;;;;4.72;3.00;;;;;;;;;;5115460;28;20476;-72
2022/10/21 11:22:26;;;;;;;7.53;3.00;;;;;;;;;;5112655;28;20050;-74
2022/10/21 11:24:51;;;;;;;11.85;3.38;;;;;;;;;;5113666;27;20089;-72
2022/10/21 11:27:16;;;;;;;8.23;2.70;;;;;;;;;;5118442;27;20035;-72
2022/10/21 11:29:41;;;;;;;6.13;3.03;;;;;;;;;;5124693;27;20031;-73
2022/10/21 11:32:42;;;;;;;8.17;2.77;;;;;;;;;;5125242;27;20102;-73
2022/10/21 11:35:19;;;;;;;6.30;2.90;;;;;;;;;;5029622;28;20151;-71
2022/10/21 11:37:53;;;;;;;8.80;3.10;;;;;;;;;;5027994;28;20686;-67
2022/10/21 11:40:21;;;;;;;7.35;3.20;;;;;;;;;;5026442;28;20037;-67
2022/10/21 11:42:48;;;;;;;7.65;3.08;;;;;;;;;;5020367;28;20038;-73
2022/10/21 11:45:16;;;;;;;6.07;2.90;;;;;;;;;;5010656;28;20507;-73
2022/10/21 11:47:48;;;;;;;5.82;3.00;;;;;;;;;;5027971;28;20041;-73
2022/10/21 11:50:33;;;;;;;7.75;2.97;;;;;;;17.35;nan;101077.72;5024927;28;20042;-73
2022/10/21 11:52:58;;;;;;;7.45;2.83;;;;;;;;;;5026191;28;20040;-73
2022/10/21 11:55:31;;;;;;;8.13;2.93;;;;;;;;;;5027034;28;20708;-67
2022/10/21 11:58:17;;;;;;;9.23;2.83;;;;;;;;;;5012553;28;20438;-67
2022/10/21 12:00:43;;;;;;;15.13;2.90;;;;;;;;;;5026060;28;20089;-66
2022/10/21 12:03:10;;;;;;;5.10;2.87;;;;;;;;;;5030530;28;20033;-70
2022/10/21 12:06:02;;;;;;;6.78;2.95;;;;;;;;;;5029744;28;20075;-71
2022/10/21 12:08:32;;;;;;;10.63;3.10;;;;;;;;;;5040501;27;20051;-67
2022/10/21 12:11:00;;;;;;;7.25;2.85;;;;;;;;;;5116952;27;20413;-67
2022/10/21 12:13:28;;;;;;;6.53;3.13;;;;;;;;;;5122923;27;20023;-73
2022/10/21 12:16:03;;;;;;;6.57;3.00;;;;;;;;;;5122473;27;20028;-73
2022/10/21 12:18:29;;;;;;;9.30;2.80;;;;;;;;;;5129802;27;20113;-74
2022/10/21 12:20:55;;;;;;;6.35;2.63;;;;;;;;;;5121531;27;20106;-73
2022/10/21 12:23:22;;;;;;;7.85;2.90;;;;;;;;;;5118110;27;20054;-71
2022/10/21 12:25:54;;;;;;;3.70;2.53;;;;;;;;;;5103955;27;20122;-67
2022/10/21 12:28:35;;;;;;;6.35;3.17;;;;;;;;;;5118282;27;20039;-67
2022/10/21 12:31:03;;;;;;;4.55;2.42;;;;;;;;;;5123668;27;20441;-73
2022/10/21 12:33:39;;;;;;;7.63;2.60;;;;;;;18.85;nan;100982.28;5102787;27;20097;-74
2022/10/21 12:36:22;;;;;;;7.55;2.45;;;;;;;18.90;nan;100992.94;5123346;27;20023;-73
2022/10/21 12:38:48;;;;;;;4.32;2.55;;;;;;;;;;5120986;27;20034;-74
2022/10/21 12:41:23;;;;;;;8.85;2.50;;;;;;;18.97;nan;101009.50;5112458;27;20051;-68
2022/10/21 12:43:52;;;;;;;15.80;2.60;;;;;;;18.96;nan;100980.41;5118933;27;21539;-68
2022/10/21 12:46:23;;;;;;;5.45;2.88;;;;;;;18.97;nan;100974.81;5119168;27;20027;-67
2022/10/21 12:48:49;;;;;;;5.80;2.67;;;;;;;18.95;nan;100965.47;5102278;27;20420;-67
2022/10/21 12:51:19;;;;;;;3.63;2.53;;;;;;;;;;5099434;27;20032;-73
2022/10/21 12:54:06;;;;;;;10.02;2.90;;;;;;;18.95;nan;100994.81;5119238;27;20031;-73
2022/10/21 12:56:37;;;;;;;7.32;3.08;;;;;;;18.91;nan;100997.19;5122175;27;20024;-68
2022/10/21 12:59:05;;;;;;;8.40;3.05;;;;;;;;;;5107597;28;20049;-68
2022/10/21 13:01:39;;;;;;;7.38;2.58;;;;;;;18.90;nan;100980.41;5115170;27;20532;-67
2022/10/21 13:04:24;;;;;;;6.55;2.88;;;;;;;18.89;nan;100991.31;5110417;27;20198;-67
2022/10/21 13:06:53;;;;;;;3.63;2.22;;;;;;;18.88;nan;101001.22;5117830;27;20059;-68
2022/10/21 13:09:43;;;;;;;5.30;2.53;;;;;;;18.87;nan;100990.81;5118248;27;20055;-68
2022/10/21 13:12:08;;;;;;;7.78;2.47;;;;;;;18.87;nan;100993.50;5118478;27;20027;-69
2022/10/21 13:14:55;;;;;;;7.07;2.57;;;;;;;18.84;nan;101040.19;5117138;27;20078;-70
2022/10/21 13:17:21;;;;;;;7.07;2.50;;;;;;;18.92;nan;100974.81;5125295;27;20281;-69
2022/10/21 13:19:46;;;;;;;6.83;2.70;;;;;;;18.94;nan;100962.00;5104438;27;20595;-69
2022/10/21 13:22:22;;;;;;;3.53;2.57;;;;;;;18.94;nan;101011.88;5118566;27;20319;-69
2022/10/21 13:24:48;;;;;;;5.22;2.63;;;;;;;18.91;nan;100936.66;5107043;27;20343;-69
2022/10/21 13:27:32;;;;;;;13.45;2.63;;;;;;;18.89;nan;100943.28;5100901;28;20032;-70
2022/10/21 13:29:59;;;;;;;7.40;2.78;;;;;;;18.85;nan;100920.91;5119398;27;20035;-70
2022/10/21 13:32:32;;;;;;;5.93;2.65;;;;;;;18.83;nan;100936.38;5103861;27;20535;-70
2022/10/21 13:35:28;;;;;;;9.32;2.50;;;;;;;18.74;nan;100940.59;5116966;27;20030;-70
2022/10/21 13:37:56;;;;;;;4.88;2.88;;;;;;;18.73;nan;100955.81;5114929;27;20019;-70
2022/10/21 13:40:30;;;;;;;6.00;2.80;;;;;;;18.68;nan;100935.28;5119003;27;20106;-69
2022/10/21 13:43:00;;;;;;;5.25;2.80;;;;;;;;;;5118739;27;20016;-69
2022/10/21 13:45:46;;;;;;;5.05;2.92;;;;;;;18.51;nan;100908.06;5119079;27;20023;-69
2022/10/21 13:48:18;;;;;;;9.23;3.15;;;;;;;18.48;nan;100959.22;5100283;27;20038;-69
2022/10/21 13:50:47;;;;;;;8.30;3.08;;;;;;;;;;5119086;27;20055;-69
2022/10/21 13:53:16;;;;;;;;;;;;;;;18.42;nan;100941.63;5105300;27;20039;-70
2022/10/21 13:55:41;;;;;;;9.25;3.28;;;;;;;18.33;nan;100981.34;5119847;27;19919;-69
2022/10/21 13:58:14;;;;;;;5.53;3.15;;;;;;;;;;5114965;27;20381;-69
2022/10/21 14:00:39;;;;;;;7.85;2.88;;;;;;;;;;5107708;28;20024;-71
2022/10/21 14:03:04;;;;;;;6.60;2.70;;;;;;;;;;5117801;27;20029;-70
2022/10/21 14:05:39;;;;;;;11.13;3.20;;;;;;;;;;5097819;28;20070;-69
2022/10/21 14:08:16;;;;;;;9.75;2.97;;;;;;;;;;5122838;27;20110;-70
2022/10/21 14:10:43;;;;;;;10.85;2.78;;;;;;;;;;5113781;27;20485;-70
2022/10/21 14:13:10;;;;;;;8.55;2.70;;;;;;;;;;5103942;27;20051;-69
2022/10/21 14:15:38;;;;;;;8.00;2.75;;;;;;;;;;5123623;27;20018;-70
2022/10/21 14:18:04;;;;;;;5.40;2.60;;;;;;;;;;5124635;27;20032;-69